createdAt,value
2023-03-21T00:02:08.245Z,9.50
2023-03-21T00:04:56.589Z,9.40
2023-03-21T00:07:43.937Z,9.40
2023-03-21T00:10:39.547Z,9.30
2023-03-21T00:13:32.540Z,9.30
2023-03-21T00:16:20.559Z,9.30
2023-03-21T00:19:14.575Z,9.30
2023-03-21T00:25:09.274Z,9.30
2023-03-21T00:28:07.587Z,9.30
2023-03-21T00:31:00.370Z,9.20
2023-03-21T00:33:46.257Z,9.30
2023-03-21T00:36:32.047Z,9.30
2023-03-21T00:39:17.803Z,9.30
2023-03-21T00:42:03.940Z,9.30
2023-03-21T00:44:49.679Z,9.30
2023-03-21T00:47:37.722Z,9.30
2023-03-21T00:50:24.046Z,9.30
2023-03-21T00:53:17.175Z,9.30
2023-03-21T00:56:02.600Z,9.30
2023-03-21T00:58:48.134Z,9.30
2023-03-21T01:01:33.300Z,9.30
2023-03-21T01:04:18.573Z,9.30
2023-03-21T01:07:03.952Z,9.30
2023-03-21T01:09:52.592Z,9.20
2023-03-21T01:12:38.012Z,9.20
2023-03-21T01:15:24.200Z,9.10
2023-03-21T01:18:09.559Z,9.10
2023-03-21T01:20:57.493Z,9.10
2023-03-21T01:23:46.226Z,9.10
2023-03-21T01:26:31.716Z,9.10
2023-03-21T01:29:17.330Z,9.10
2023-03-21T01:32:02.492Z,9.10
2023-03-21T01:34:48.192Z,9.00
2023-03-21T01:37:36.053Z,9.00
2023-03-21T01:40:27.290Z,9.00
2023-03-21T01:43:36.064Z,9.00
2023-03-21T01:47:10.586Z,9.00
2023-03-21T01:50:01.840Z,9.00
2023-03-21T01:52:49.989Z,9.00
2023-03-21T01:55:37.122Z,9.00
2023-03-21T01:58:23.673Z,9.00
2023-03-21T02:01:10.660Z,9.00
2023-03-21T02:04:03.805Z,9.00
2023-03-21T02:07:09.824Z,9.00
2023-03-21T02:09:58.180Z,8.90
2023-03-21T02:12:43.470Z,9.00
2023-03-21T02:15:29.837Z,8.90
2023-03-21T02:18:44.327Z,8.90
2023-03-21T02:21:32.751Z,8.90
2023-03-21T02:24:28.224Z,8.90
2023-03-21T02:27:18.814Z,9.00
2023-03-21T02:30:37.590Z,9.00
2023-03-21T02:33:40.105Z,8.90
2023-03-21T02:36:56.228Z,8.80
2023-03-21T02:39:55.370Z,8.80
2023-03-21T02:42:59.805Z,8.80
2023-03-21T02:46:10.901Z,8.80
2023-03-21T02:49:09.134Z,8.70
2023-03-21T02:52:05.406Z,8.80
2023-03-21T02:55:04.924Z,8.70
2023-03-21T02:57:52.660Z,8.60
2023-03-21T03:00:43.383Z,8.60
2023-03-21T03:03:34.479Z,8.60
2023-03-21T03:06:24.677Z,8.60
2023-03-21T03:09:38.454Z,8.60
2023-03-21T03:12:59.520Z,8.60
2023-03-21T03:16:05.383Z,8.70
2023-03-21T03:18:59.357Z,8.70
2023-03-21T03:21:56.654Z,8.60
2023-03-21T03:25:18.551Z,8.70
2023-03-21T03:28:08.653Z,8.70
2023-03-21T03:31:08.637Z,8.70
2023-03-21T03:34:02.222Z,8.70
2023-03-21T03:36:56.356Z,8.70
2023-03-21T03:39:58.038Z,8.70
2023-03-21T03:42:46.491Z,8.60
2023-03-21T03:45:42.529Z,8.60
2023-03-21T03:48:37.222Z,8.60
2023-03-21T03:51:50.360Z,8.70
2023-03-21T03:54:43.983Z,8.60
2023-03-21T03:57:30.156Z,8.70
2023-03-21T04:00:17.293Z,8.60
2023-03-21T04:03:07.345Z,8.50
2023-03-21T04:05:54.053Z,8.40
2023-03-21T04:08:39.374Z,8.50
2023-03-21T04:11:25.094Z,8.60
2023-03-21T04:14:10.726Z,8.60
2023-03-21T04:16:56.256Z,8.60
2023-03-21T04:19:43.574Z,8.60
2023-03-21T04:22:29.024Z,8.60
2023-03-21T04:25:21.849Z,8.70
2023-03-21T04:28:12.409Z,8.70
2023-03-21T04:31:05.227Z,8.80
2023-03-21T04:33:56.148Z,8.80
2023-03-21T04:37:04.196Z,8.80
2023-03-21T04:39:51.074Z,8.70
2023-03-21T04:42:36.700Z,8.60
2023-03-21T04:45:24.318Z,8.70
2023-03-21T04:48:10.409Z,8.70
2023-03-21T04:50:56.509Z,8.70
2023-03-21T04:53:46.935Z,8.80
2023-03-21T04:56:36.207Z,8.70
2023-03-21T04:59:22.073Z,8.80
2023-03-21T05:02:09.849Z,8.80
2023-03-21T05:04:57.421Z,8.60
2023-03-21T05:07:44.812Z,8.70
2023-03-21T05:10:32.223Z,8.60
2023-03-21T05:13:19.952Z,8.50
2023-03-21T05:16:05.642Z,8.60
2023-03-21T05:18:54.763Z,8.70
2023-03-21T05:21:43.499Z,8.80
2023-03-21T05:24:29.357Z,8.80
2023-03-21T05:27:26.106Z,8.80
2023-03-21T05:30:17.478Z,8.80
2023-03-21T05:33:03.773Z,8.70
2023-03-21T05:35:53.910Z,8.70
2023-03-21T05:38:42.784Z,8.70
2023-03-21T05:41:28.373Z,8.70
2023-03-21T05:44:16.061Z,8.80
2023-03-21T05:47:01.390Z,8.90
2023-03-21T05:49:47.259Z,8.90
2023-03-21T05:52:33.038Z,9.10
2023-03-21T05:55:18.379Z,9.10
2023-03-21T05:58:04.137Z,9.10
2023-03-21T06:00:49.964Z,9.10
2023-03-21T06:03:37.780Z,9.20
2023-03-21T06:06:22.928Z,9.20
2023-03-21T06:09:08.550Z,9.10
2023-03-21T06:11:56.660Z,9.00
2023-03-21T06:14:42.292Z,9.00
2023-03-21T06:17:27.826Z,9.10
2023-03-21T06:20:13.669Z,9.00
2023-03-21T06:23:01.519Z,9.00
2023-03-21T06:25:48.974Z,8.90
2023-03-21T06:28:36.883Z,9.10
2023-03-21T06:31:22.855Z,9.30
2023-03-21T06:34:11.646Z,9.40
2023-03-21T06:36:59.670Z,9.50
2023-03-21T06:39:46.895Z,9.50
2023-03-21T06:42:32.668Z,9.50
2023-03-21T06:45:18.007Z,9.50
2023-03-21T06:48:03.238Z,9.60
2023-03-21T06:50:54.878Z,9.60
2023-03-21T06:53:41.508Z,9.80
2023-03-21T06:56:26.985Z,9.90
2023-03-21T06:59:12.988Z,9.90
2023-03-21T07:01:59.586Z,9.90
2023-03-21T07:04:47.385Z,9.90
2023-03-21T07:07:34.772Z,10.10
2023-03-21T07:10:20.352Z,10.10
2023-03-21T07:13:08.310Z,10.00
2023-03-21T07:15:54.536Z,10.10
2023-03-21T07:18:40.128Z,9.90
2023-03-21T07:21:28.112Z,9.90
2023-03-21T07:24:13.490Z,10.00
2023-03-21T07:27:01.847Z,10.00
2023-03-21T07:29:50.441Z,10.20
2023-03-21T07:32:37.987Z,10.10
2023-03-21T07:35:26.457Z,10.20
2023-03-21T07:38:12.241Z,10.00
2023-03-21T07:41:00.961Z,10.00
2023-03-21T07:43:48.764Z,10.20
2023-03-21T07:46:34.619Z,10.40
2023-03-21T07:49:19.771Z,10.20
2023-03-21T07:52:07.746Z,10.40
2023-03-21T07:54:55.597Z,10.50
2023-03-21T07:57:46.449Z,10.50
2023-03-21T08:00:32.114Z,10.40
2023-03-21T08:03:20.512Z,10.40
2023-03-21T08:06:09.414Z,10.50
2023-03-21T08:08:54.706Z,10.40
2023-03-21T08:11:42.767Z,10.50
2023-03-21T08:14:30.248Z,10.80
2023-03-21T08:17:15.887Z,10.70
2023-03-21T08:20:01.259Z,10.80
2023-03-21T08:22:50.748Z,11.00
2023-03-21T08:25:39.367Z,11.20
2023-03-21T08:28:27.548Z,11.20
2023-03-21T08:31:14.184Z,11.30
2023-03-21T08:33:59.569Z,11.40
2023-03-21T08:36:45.060Z,11.30
2023-03-21T08:39:32.885Z,11.40
2023-03-21T08:42:18.354Z,11.20
2023-03-21T08:45:05.150Z,11.40
2023-03-21T08:47:50.799Z,11.40
2023-03-21T08:50:36.113Z,11.50
2023-03-21T08:53:21.246Z,11.60
2023-03-21T08:56:09.616Z,11.40
2023-03-21T08:58:55.552Z,11.40
2023-03-21T09:01:43.105Z,11.60
2023-03-21T09:04:30.589Z,11.20
2023-03-21T09:07:18.085Z,11.40
2023-03-21T09:10:23.077Z,11.40
2023-03-21T09:13:13.326Z,11.40
2023-03-21T09:16:01.320Z,11.40
2023-03-21T09:18:48.856Z,11.40
2023-03-21T09:21:35.923Z,11.40
2023-03-21T09:24:21.960Z,11.50
2023-03-21T09:27:07.878Z,11.70
2023-03-21T09:29:54.162Z,12.00
2023-03-21T09:32:39.909Z,11.90
2023-03-21T09:35:27.075Z,12.10
2023-03-21T09:38:12.788Z,12.00
2023-03-21T09:41:17.692Z,12.10
2023-03-21T09:44:19.995Z,12.10
2023-03-21T09:47:13.921Z,12.50
2023-03-21T09:50:23.404Z,12.70
2023-03-21T09:53:09.569Z,12.90
2023-03-21T09:55:57.405Z,12.50
2023-03-21T09:58:54.735Z,12.60
2023-03-21T10:01:45.449Z,13.00
2023-03-21T10:04:33.993Z,12.90
2023-03-21T10:07:19.956Z,13.20
2023-03-21T10:10:07.436Z,13.40
2023-03-21T10:16:23.392Z,13.30
2023-03-21T10:19:16.097Z,13.20
2023-03-21T10:22:03.652Z,13.30
2023-03-21T10:24:53.967Z,13.50
2023-03-21T10:27:41.670Z,13.70
2023-03-21T10:30:42.341Z,13.80
2023-03-21T10:33:49.537Z,14.00
2023-03-21T10:36:36.076Z,13.70
2023-03-21T10:39:40.892Z,13.80
2023-03-21T10:42:32.831Z,13.90
2023-03-21T10:45:20.731Z,14.10
2023-03-21T10:48:08.558Z,13.90
2023-03-21T10:50:56.221Z,13.90
2023-03-21T10:53:48.503Z,13.90
2023-03-21T10:56:45.394Z,13.80
2023-03-21T10:59:43.229Z,13.80
2023-03-21T11:02:33.642Z,13.40
2023-03-21T11:05:23.014Z,13.20
2023-03-21T11:08:14.694Z,13.10
2023-03-21T11:11:06.712Z,13.20
2023-03-21T11:14:01.245Z,13.30
2023-03-21T11:16:46.855Z,13.10
2023-03-21T11:19:35.404Z,13.10
2023-03-21T11:22:22.596Z,12.90
2023-03-21T11:25:15.316Z,13.10
2023-03-21T11:28:15.850Z,13.20
2023-03-21T11:31:03.371Z,12.90
2023-03-21T11:33:55.359Z,12.90
2023-03-21T11:36:45.218Z,12.90
2023-03-21T11:39:41.089Z,13.00
2023-03-21T11:42:32.793Z,12.90
2023-03-21T11:45:24.750Z,12.80
2023-03-21T11:48:14.610Z,12.90
2023-03-21T11:51:04.797Z,13.00
2023-03-21T11:54:12.817Z,13.10
2023-03-21T11:57:29.669Z,13.10
2023-03-21T12:00:26.820Z,13.20
2023-03-21T12:03:48.613Z,13.70
2023-03-21T12:06:56.177Z,14.20
2023-03-21T12:09:43.413Z,14.20
2023-03-21T12:12:55.275Z,14.10
2023-03-21T12:15:48.555Z,14.30
2023-03-21T12:19:22.514Z,15.10
2023-03-21T12:22:52.534Z,15.20
2023-03-21T12:26:04.128Z,15.20
2023-03-21T12:29:30.063Z,14.70
2023-03-21T12:32:27.388Z,14.40
2023-03-21T12:35:42.010Z,14.20
2023-03-21T12:38:45.461Z,14.10
2023-03-21T12:41:38.420Z,13.80
2023-03-21T12:44:32.822Z,13.80
2023-03-21T12:47:25.178Z,13.80
2023-03-21T12:50:21.743Z,13.70
2023-03-21T12:53:47.306Z,13.90
2023-03-21T12:57:08.223Z,14.00
2023-03-21T13:00:16.065Z,14.00
2023-03-21T13:03:12.772Z,13.70
2023-03-21T13:06:05.685Z,13.70
2023-03-21T13:09:07.488Z,13.90
2023-03-21T13:11:57.249Z,13.90
2023-03-21T13:14:59.970Z,14.10
2023-03-21T13:17:56.667Z,14.30
2023-03-21T13:20:57.298Z,14.40
2023-03-21T13:23:58.359Z,14.60
2023-03-21T13:26:51.739Z,14.30
2023-03-21T13:29:52.062Z,13.80
2023-03-21T13:32:46.260Z,13.80
2023-03-21T13:35:38.260Z,13.70
2023-03-21T13:38:30.458Z,13.70
2023-03-21T13:41:22.642Z,13.70
2023-03-21T13:44:43.974Z,13.80
2023-03-21T13:47:40.624Z,13.60
2023-03-21T13:50:36.733Z,13.70
2023-03-21T13:53:24.258Z,13.70
2023-03-21T13:56:22.761Z,13.50
2023-03-21T13:59:13.282Z,13.60
2023-03-21T14:02:16.946Z,13.70
2023-03-21T14:05:20.620Z,13.70
2023-03-21T14:08:21.565Z,13.80
2023-03-21T14:11:20.635Z,13.50
2023-03-21T14:14:06.720Z,13.70
2023-03-21T14:16:55.429Z,13.80
2023-03-21T14:19:41.134Z,13.60
2023-03-21T14:22:27.091Z,13.60
2023-03-21T14:25:14.890Z,13.80
2023-03-21T14:28:03.964Z,13.90
2023-03-21T14:30:56.602Z,13.80
2023-03-21T14:33:47.660Z,13.90
2023-03-21T14:36:43.163Z,13.80
2023-03-21T14:39:33.045Z,14.00
2023-03-21T14:42:24.744Z,14.30
2023-03-21T14:45:22.990Z,14.40
2023-03-21T14:48:14.185Z,14.60
2023-03-21T14:51:12.289Z,14.70
2023-03-21T14:54:00.332Z,15.30
2023-03-21T14:56:49.920Z,15.50
2023-03-21T14:59:38.825Z,15.80
2023-03-21T15:02:28.188Z,16.00
2023-03-21T15:05:38.437Z,15.90
2023-03-21T15:08:26.641Z,16.10
2023-03-21T15:11:13.205Z,16.10
2023-03-21T15:14:02.784Z,15.80
2023-03-21T15:16:49.278Z,15.80
2023-03-21T15:19:38.717Z,15.30
2023-03-21T15:22:38.943Z,15.00
2023-03-21T15:25:29.218Z,14.70
2023-03-21T15:28:14.920Z,14.40
2023-03-21T15:31:00.915Z,14.50
2023-03-21T15:33:52.064Z,14.40
2023-03-21T15:36:45.308Z,14.10
2023-03-21T15:39:31.502Z,14.10
2023-03-21T15:42:39.264Z,14.00
2023-03-21T15:45:27.054Z,14.00
2023-03-21T15:48:14.592Z,13.80
2023-03-21T15:51:07.998Z,13.70
2023-03-21T15:53:56.496Z,13.70
2023-03-21T15:56:46.054Z,13.70
2023-03-21T15:59:41.019Z,13.60
2023-03-21T16:02:30.822Z,13.60
2023-03-21T16:05:25.401Z,13.50
2023-03-21T16:08:32.572Z,13.50
2023-03-21T16:11:27.940Z,13.30
2023-03-21T16:14:13.313Z,13.30
2023-03-21T16:16:59.125Z,13.20
2023-03-21T16:19:47.567Z,13.10
2023-03-21T16:22:35.685Z,13.10
2023-03-21T16:25:24.055Z,13.20
2023-03-21T16:28:17.532Z,13.10
2023-03-21T16:31:03.112Z,13.00
2023-03-21T16:33:48.878Z,13.00
2023-03-21T16:36:37.260Z,12.90
2023-03-21T16:39:26.219Z,12.90
2023-03-21T16:42:14.305Z,12.90
2023-03-21T16:44:59.412Z,12.80
2023-03-21T16:47:47.528Z,12.80
2023-03-21T16:50:42.259Z,12.80
2023-03-21T16:53:27.957Z,12.80
2023-03-21T16:56:24.356Z,12.80
2023-03-21T16:59:13.066Z,12.80
2023-03-21T17:01:58.788Z,12.70
2023-03-21T17:04:47.067Z,12.70
2023-03-21T17:07:32.694Z,12.70
2023-03-21T17:10:24.976Z,12.60
2023-03-21T17:13:10.628Z,12.60
2023-03-21T17:15:56.122Z,12.60
2023-03-21T17:18:46.395Z,12.60
2023-03-21T17:21:36.348Z,12.60
2023-03-21T17:24:26.036Z,12.50
2023-03-21T17:27:14.514Z,12.50
2023-03-21T17:30:04.787Z,12.50
2023-03-21T17:32:51.603Z,12.50
2023-03-21T17:35:39.051Z,12.40
2023-03-21T17:38:24.934Z,12.50
2023-03-21T17:41:13.553Z,12.50
2023-03-21T17:44:02.868Z,12.40
2023-03-21T17:46:50.402Z,12.50
2023-03-21T17:49:39.893Z,12.40
2023-03-21T17:52:25.147Z,12.30
2023-03-21T17:55:11.169Z,12.30
2023-03-21T17:58:01.325Z,12.30
2023-03-21T18:00:47.055Z,12.30
2023-03-21T18:03:32.910Z,12.30
2023-03-21T18:06:21.739Z,12.30
2023-03-21T18:09:11.447Z,12.20
2023-03-21T18:11:57.102Z,12.20
2023-03-21T18:14:45.471Z,12.20
2023-03-21T18:17:31.238Z,12.20
2023-03-21T18:20:20.921Z,12.20
2023-03-21T18:23:06.397Z,12.20
2023-03-21T18:25:54.437Z,12.20
2023-03-21T18:28:43.610Z,12.20
2023-03-21T18:31:29.443Z,12.20
2023-03-21T18:34:15.007Z,12.20
2023-03-21T18:37:04.372Z,12.20
2023-03-21T18:39:49.838Z,12.20
2023-03-21T18:42:36.812Z,12.10
2023-03-21T18:45:25.061Z,12.10
2023-03-21T18:48:13.167Z,12.10
2023-03-21T18:50:58.593Z,12.20
2023-03-21T18:53:46.721Z,12.10
2023-03-21T18:59:39.203Z,12.20
2023-03-21T19:02:25.258Z,12.20
2023-03-21T19:05:11.012Z,12.20
2023-03-21T19:07:57.753Z,12.10
2023-03-21T19:10:43.355Z,12.20
2023-03-21T19:13:28.974Z,12.20
2023-03-21T19:16:17.934Z,12.20
2023-03-21T19:19:09.305Z,12.20
2023-03-21T19:21:55.242Z,12.20
2023-03-21T19:24:41.427Z,12.20
2023-03-21T19:27:27.043Z,12.10
2023-03-21T19:30:15.816Z,12.10
2023-03-21T19:33:01.957Z,12.10
2023-03-21T19:36:08.942Z,12.10
2023-03-21T19:38:56.269Z,12.10
2023-03-21T19:41:44.555Z,12.10
2023-03-21T19:44:33.308Z,12.10
2023-03-21T19:47:20.688Z,12.10
2023-03-21T19:50:43.804Z,12.00
2023-03-21T19:53:13.645Z,12.00
2023-03-21T19:56:01.904Z,12.00
2023-03-21T19:58:52.048Z,11.90
2023-03-21T20:01:37.752Z,11.90
2023-03-21T20:04:27.380Z,11.80
2023-03-21T20:07:13.341Z,11.80
2023-03-21T20:09:59.367Z,11.70
2023-03-21T20:12:45.353Z,11.70
2023-03-21T20:15:31.165Z,11.70
2023-03-21T20:18:20.359Z,11.70
2023-03-21T20:21:16.128Z,11.70
2023-03-21T20:24:03.727Z,11.70
2023-03-21T20:26:53.409Z,11.70
2023-03-21T20:32:46.890Z,11.70
2023-03-21T20:36:23.652Z,11.70
2023-03-21T20:38:38.087Z,11.60
2023-03-21T20:41:24.280Z,11.60
2023-03-21T20:44:44.838Z,11.60
2023-03-21T20:47:19.465Z,11.60
2023-03-21T20:50:07.763Z,11.50
2023-03-21T20:53:06.597Z,11.50
2023-03-21T20:55:55.048Z,11.50
2023-03-21T20:59:04.526Z,11.50
2023-03-21T21:01:49.398Z,11.40
2023-03-21T21:04:55.809Z,11.40
2023-03-21T21:07:43.778Z,11.40
2023-03-21T21:10:36.467Z,11.30
2023-03-21T21:13:30.948Z,11.20
2023-03-21T21:16:21.487Z,11.20
2023-03-21T21:19:06.898Z,11.20
2023-03-21T21:21:52.539Z,11.30
2023-03-21T21:24:40.993Z,11.30
2023-03-21T21:27:26.431Z,11.30
2023-03-21T21:30:16.634Z,11.30
2023-03-21T21:33:01.799Z,11.30
2023-03-21T21:35:48.988Z,11.30
2023-03-21T21:38:35.869Z,11.30
2023-03-21T21:41:24.037Z,11.20
2023-03-21T21:44:09.228Z,11.10
2023-03-21T21:46:54.653Z,11.00
2023-03-21T21:49:41.221Z,11.00
2023-03-21T21:52:26.656Z,11.00
2023-03-21T21:55:13.106Z,11.00
2023-03-21T21:57:59.271Z,11.10
2023-03-21T22:00:48.687Z,11.00
2023-03-21T22:03:36.630Z,11.00
2023-03-21T22:06:24.181Z,11.00
2023-03-21T22:09:13.923Z,11.00
2023-03-21T22:11:59.184Z,11.00
2023-03-21T22:14:46.847Z,11.00
2023-03-21T22:17:32.076Z,10.90
2023-03-21T22:20:20.535Z,10.90
2023-03-21T22:23:05.845Z,10.90
2023-03-21T22:25:52.323Z,10.90
2023-03-21T22:28:42.199Z,10.90
2023-03-21T22:31:33.325Z,10.90
2023-03-21T22:34:19.234Z,10.80
2023-03-21T22:37:04.687Z,10.80
2023-03-21T22:39:50.626Z,10.80
2023-03-21T22:42:37.603Z,10.80
2023-03-21T22:45:22.816Z,10.80
2023-03-21T22:48:10.445Z,10.80
2023-03-21T22:50:59.778Z,10.80
2023-03-21T22:53:48.179Z,10.80
2023-03-21T22:56:33.432Z,10.80
2023-03-21T22:59:21.753Z,10.70
2023-03-21T23:02:09.927Z,10.70
2023-03-21T23:04:55.897Z,10.70
2023-03-21T23:07:43.324Z,10.60
2023-03-21T23:10:28.685Z,10.60
2023-03-21T23:13:14.101Z,10.60
2023-03-21T23:16:06.631Z,10.60
2023-03-21T23:18:53.700Z,10.60
2023-03-21T23:21:40.088Z,10.60
2023-03-21T23:24:28.204Z,10.70
2023-03-21T23:27:14.304Z,10.70
2023-03-21T23:29:59.619Z,10.70
2023-03-21T23:32:45.389Z,10.70
2023-03-21T23:35:34.475Z,10.70
2023-03-21T23:38:20.686Z,10.80
2023-03-21T23:41:13.444Z,10.80
2023-03-21T23:44:01.035Z,10.70
2023-03-21T23:46:48.500Z,10.70
2023-03-21T23:49:37.571Z,10.70
2023-03-21T23:52:23.131Z,10.50
2023-03-21T23:58:13.267Z,10.20
